createdAt,value
2023-05-05T00:03:20.334Z,3.53
2023-05-05T00:08:23.259Z,3.70
2023-05-05T00:13:27.289Z,3.88
2023-05-05T00:18:30.184Z,3.97
2023-05-05T00:23:32.836Z,4.05
2023-05-05T00:28:36.823Z,3.70
2023-05-05T00:33:39.495Z,3.75
2023-05-05T00:38:42.930Z,4.03
2023-05-05T00:43:47.167Z,3.55
2023-05-05T00:48:49.920Z,3.72
2023-05-05T00:53:52.709Z,3.63
2023-05-05T00:58:58.356Z,3.60
2023-05-05T01:04:01.398Z,3.67
2023-05-05T01:09:09.862Z,3.67
2023-05-05T01:14:17.014Z,3.83
2023-05-05T01:19:33.641Z,3.53
2023-05-05T01:24:59.350Z,3.58
2023-05-05T01:30:09.883Z,3.63
2023-05-05T01:35:19.646Z,3.92
2023-05-05T01:40:26.686Z,3.67
2023-05-05T01:45:30.608Z,3.80
2023-05-05T01:50:35.011Z,4.00
2023-05-05T01:55:38.203Z,3.63
2023-05-05T02:00:41.562Z,3.60
2023-05-05T02:05:45.800Z,3.70
2023-05-05T02:10:49.047Z,3.53
2023-05-05T02:15:53.020Z,3.47
2023-05-05T02:20:57.198Z,3.80
2023-05-05T02:26:04.641Z,3.58
2023-05-05T02:31:08.515Z,3.60
2023-05-05T02:36:16.563Z,4.10
2023-05-05T02:41:26.784Z,3.50
2023-05-05T02:46:30.399Z,3.70
2023-05-05T02:51:34.527Z,3.65
2023-05-05T02:56:44.085Z,3.80
2023-05-05T03:01:57.076Z,3.42
2023-05-05T03:07:10.885Z,3.65
2023-05-05T03:12:17.955Z,3.67
2023-05-05T03:17:30.791Z,3.75
2023-05-05T03:22:37.950Z,4.03
2023-05-05T03:27:43.593Z,4.03
2023-05-05T03:32:49.812Z,3.67
2023-05-05T03:37:55.412Z,3.80
2023-05-05T03:42:58.748Z,3.83
2023-05-05T03:48:02.067Z,3.58
2023-05-05T03:53:07.054Z,4.10
2023-05-05T03:58:09.908Z,4.10
2023-05-05T04:03:12.750Z,3.47
2023-05-05T04:08:17.030Z,3.90
2023-05-05T04:13:19.846Z,3.83
2023-05-05T04:18:23.283Z,3.50
2023-05-05T04:23:27.933Z,4.05
2023-05-05T04:28:30.682Z,4.15
2023-05-05T04:33:33.378Z,3.90
2023-05-05T04:38:37.821Z,4.10
2023-05-05T04:43:41.246Z,4.20
2023-05-05T04:48:43.972Z,4.13
2023-05-05T04:53:48.315Z,4.20
2023-05-05T04:58:51.097Z,4.22
2023-05-05T05:03:54.148Z,4.25
2023-05-05T05:08:58.291Z,4.00
2023-05-05T05:14:01.029Z,4.28
2023-05-05T05:19:03.758Z,4.20
2023-05-05T05:24:11.026Z,4.80
2023-05-05T05:29:14.233Z,4.45
2023-05-05T05:34:17.122Z,4.78
2023-05-05T05:39:22.302Z,4.07
2023-05-05T05:44:25.915Z,4.25
2023-05-05T05:49:28.712Z,4.43
2023-05-05T05:54:34.408Z,4.43
2023-05-05T05:59:39.266Z,4.60
2023-05-05T06:04:42.556Z,4.78
2023-05-05T06:09:47.603Z,4.78
2023-05-05T06:14:52.206Z,4.57
2023-05-05T06:19:54.946Z,4.97
2023-05-05T06:24:59.259Z,4.63
2023-05-05T06:30:02.040Z,4.82
2023-05-05T06:35:05.125Z,4.78
2023-05-05T06:40:11.313Z,5.15
2023-05-05T06:45:14.212Z,5.15
2023-05-05T06:50:16.895Z,4.80
2023-05-05T06:55:21.275Z,5.10
2023-05-05T07:00:24.496Z,4.80
2023-05-05T07:05:27.129Z,5.20
2023-05-05T07:10:31.826Z,4.90
2023-05-05T07:15:34.641Z,4.85
2023-05-05T07:20:37.282Z,4.97
2023-05-05T07:25:41.347Z,5.00
2023-05-05T07:30:43.982Z,4.82
2023-05-05T07:35:46.848Z,4.35
2023-05-05T07:40:50.803Z,4.78
2023-05-05T07:45:53.549Z,4.75
2023-05-05T07:50:56.379Z,4.68
2023-05-05T07:56:00.398Z,4.78
2023-05-05T08:01:05.762Z,4.47
2023-05-05T08:06:09.850Z,4.45
2023-05-05T08:11:13.872Z,4.80
2023-05-05T08:16:16.602Z,4.25
2023-05-05T08:21:19.247Z,4.60
2023-05-05T08:26:23.464Z,4.40
2023-05-05T08:31:26.149Z,4.72
2023-05-05T08:36:29.007Z,4.40
2023-05-05T08:41:34.062Z,4.25
2023-05-05T08:46:37.545Z,4.45
2023-05-05T08:51:45.383Z,4.50
2023-05-05T08:56:51.303Z,4.07
2023-05-05T09:02:23.872Z,4.38
2023-05-05T09:07:26.568Z,4.55
2023-05-05T09:12:32.066Z,4.22
2023-05-05T09:17:34.998Z,3.90
2023-05-05T09:22:38.568Z,4.20
2023-05-05T09:27:45.699Z,3.90
2023-05-05T09:32:51.527Z,3.97
2023-05-05T09:37:54.174Z,3.80
2023-05-05T09:43:03.115Z,4.03
2023-05-05T09:48:06.280Z,3.60
2023-05-05T09:53:09.127Z,4.10
2023-05-05T09:58:20.397Z,3.92
2023-05-05T10:03:23.261Z,3.90
2023-05-05T10:08:28.049Z,4.20
2023-05-05T10:13:35.981Z,3.92
2023-05-05T10:18:41.356Z,3.67
2023-05-05T10:23:50.278Z,3.50
2023-05-05T10:28:56.820Z,3.90
2023-05-05T10:34:03.540Z,4.05
2023-05-05T10:39:09.246Z,3.85
2023-05-05T10:44:13.351Z,3.78
2023-05-05T10:49:25.684Z,3.58
2023-05-05T10:54:33.958Z,3.80
2023-05-05T10:59:43.435Z,3.65
2023-05-05T11:05:04.681Z,4.00
2023-05-05T11:10:08.722Z,3.60
2023-05-05T11:15:41.428Z,3.67
2023-05-05T11:21:08.960Z,3.60
2023-05-05T11:26:12.017Z,3.75
2023-05-05T11:31:20.011Z,3.58
2023-05-05T11:36:39.279Z,3.53
2023-05-05T11:41:52.928Z,3.47
2023-05-05T11:47:32.134Z,3.72
2023-05-05T11:52:34.874Z,3.33
2023-05-05T11:57:37.781Z,4.28
2023-05-05T12:02:42.214Z,7.72
2023-05-05T12:07:44.948Z,12.93
2023-05-05T12:12:48.439Z,20.58
2023-05-05T12:17:52.674Z,22.10
2023-05-05T12:23:00.834Z,24.15
2023-05-05T12:28:03.539Z,22.98
2023-05-05T12:33:08.499Z,20.88
2023-05-05T12:38:11.369Z,20.67
2023-05-05T12:43:35.409Z,19.55
2023-05-05T12:48:40.295Z,18.77
2023-05-05T12:53:43.286Z,16.70
2023-05-05T12:58:49.246Z,15.05
2023-05-05T13:04:15.470Z,15.13
2023-05-05T13:09:25.671Z,14.48
2023-05-05T13:14:28.321Z,14.10
2023-05-05T13:19:32.301Z,13.10
2023-05-05T13:24:46.612Z,12.45
2023-05-05T13:29:54.055Z,12.50
2023-05-05T13:34:58.094Z,11.95
2023-05-05T13:40:01.242Z,10.40
2023-05-05T13:45:04.263Z,10.88
2023-05-05T13:50:09.148Z,9.73
2023-05-05T13:55:11.848Z,11.52
2023-05-05T14:00:15.947Z,15.77
2023-05-05T14:05:20.179Z,12.52
2023-05-05T14:10:23.021Z,13.70
2023-05-05T14:15:25.685Z,10.63
2023-05-05T14:20:29.785Z,8.95
2023-05-05T14:25:32.460Z,8.15
2023-05-05T14:30:35.122Z,7.82
2023-05-05T14:35:39.123Z,7.60
2023-05-05T14:40:41.749Z,6.82
2023-05-05T14:45:45.128Z,5.90
2023-05-05T14:50:49.827Z,6.43
2023-05-05T14:55:52.560Z,6.50
2023-05-05T15:00:55.615Z,6.43
2023-05-05T15:17:00.925Z,6.00
2023-05-05T15:22:03.603Z,6.15
2023-05-05T15:27:06.388Z,5.82
2023-05-05T15:32:10.451Z,5.60
2023-05-05T15:37:13.142Z,6.30
2023-05-05T15:42:15.811Z,5.53
2023-05-05T15:47:19.775Z,4.68
2023-05-05T15:52:22.600Z,4.95
2023-05-05T15:57:25.294Z,4.60
2023-05-05T16:02:29.394Z,5.05
2023-05-05T16:07:32.082Z,4.63
2023-05-05T16:12:34.796Z,4.40
2023-05-05T16:17:38.768Z,4.45
2023-05-05T16:22:41.385Z,4.00
2023-05-05T16:27:44.047Z,4.22
2023-05-05T16:32:51.054Z,4.22
2023-05-05T16:37:53.734Z,3.90
2023-05-05T16:42:56.414Z,3.80
2023-05-05T16:48:00.475Z,3.80
2023-05-05T16:53:03.224Z,3.55
2023-05-05T16:58:05.866Z,3.72
2023-05-05T17:03:09.902Z,3.35
2023-05-05T17:08:14.100Z,3.47
2023-05-05T17:13:16.961Z,3.15
2023-05-05T17:18:22.664Z,3.60
2023-05-05T17:23:25.258Z,3.45
2023-05-05T17:28:27.857Z,3.33
2023-05-05T17:33:31.827Z,3.22
2023-05-05T17:38:34.513Z,3.28
2023-05-05T17:43:37.102Z,3.35
2023-05-05T17:48:41.216Z,3.28
2023-05-05T17:53:43.917Z,3.15
2023-05-05T17:58:46.523Z,3.60
2023-05-05T18:03:50.685Z,3.20
2023-05-05T18:08:53.719Z,3.20
2023-05-05T18:13:56.419Z,3.30
2023-05-05T18:19:00.390Z,3.30
2023-05-05T18:24:15.733Z,3.40
2023-05-05T18:29:22.945Z,3.20
2023-05-05T18:34:27.351Z,3.30
2023-05-05T18:39:30.234Z,3.60
2023-05-05T18:44:34.741Z,3.60
2023-05-05T18:49:38.915Z,3.67
2023-05-05T18:54:41.606Z,3.80
2023-05-05T18:59:44.559Z,3.33
2023-05-05T19:04:48.608Z,3.67
2023-05-05T19:09:51.385Z,3.75
2023-05-05T19:14:54.001Z,3.95
2023-05-05T19:19:57.993Z,3.72
2023-05-05T19:25:01.045Z,3.95
2023-05-05T19:30:04.050Z,4.10
2023-05-05T19:35:10.380Z,4.82
2023-05-05T19:40:13.952Z,5.93
2023-05-05T19:45:16.713Z,12.52
2023-05-05T19:50:21.254Z,21.00
2023-05-05T19:55:24.395Z,29.40
2023-05-05T20:00:27.264Z,31.65
2023-05-05T20:05:31.381Z,31.05
2023-05-05T20:10:34.066Z,32.33
2023-05-05T20:15:37.009Z,30.50
2023-05-05T20:20:41.084Z,28.10
2023-05-05T20:25:43.703Z,28.30
2023-05-05T20:30:46.354Z,25.33
2023-05-05T20:35:50.468Z,24.05
2023-05-05T20:40:53.109Z,22.45
2023-05-05T20:45:55.746Z,21.77
2023-05-05T20:50:59.843Z,20.45
2023-05-05T20:56:02.471Z,18.63
2023-05-05T21:01:05.261Z,18.17
2023-05-05T21:06:09.286Z,16.45
2023-05-05T21:11:11.946Z,15.25
2023-05-05T21:16:14.672Z,15.07
2023-05-05T21:21:18.761Z,14.18
2023-05-05T21:26:21.365Z,13.00
2023-05-05T21:31:23.990Z,12.65
2023-05-05T21:36:29.003Z,12.30
2023-05-05T21:41:31.642Z,12.52
2023-05-05T21:46:34.404Z,11.40
2023-05-05T21:51:38.376Z,10.23
2023-05-05T21:56:41.079Z,10.35
2023-05-05T22:01:43.853Z,10.30
2023-05-05T22:06:47.848Z,9.55
2023-05-05T22:11:52.208Z,8.70
2023-05-05T22:16:54.787Z,8.80
2023-05-05T22:21:59.520Z,7.95
2023-05-05T22:27:02.192Z,8.43
2023-05-05T22:32:04.828Z,8.32
2023-05-05T22:37:09.677Z,8.10
2023-05-05T22:42:12.347Z,8.00
2023-05-05T22:47:15.153Z,7.90
2023-05-05T22:52:19.369Z,7.47
2023-05-05T22:57:22.143Z,7.88
2023-05-05T23:02:26.382Z,7.07
2023-05-05T23:07:30.477Z,6.97
2023-05-05T23:12:33.151Z,6.93
2023-05-05T23:17:35.943Z,7.25
2023-05-05T23:22:40.089Z,6.60
2023-05-05T23:27:43.752Z,7.00
2023-05-05T23:32:46.640Z,6.43
2023-05-05T23:37:50.686Z,6.03
2023-05-05T23:42:53.301Z,6.15
2023-05-05T23:47:56.070Z,6.03
2023-05-05T23:53:00.066Z,6.20
2023-05-05T23:58:02.761Z,5.75
